createdAt,value
2018-04-29T00:00:48.824Z,0
2018-04-29T00:01:49.053Z,0
2018-04-29T00:02:49.035Z,0
2018-04-29T00:03:49.011Z,0
2018-04-29T00:04:48.992Z,0
2018-04-29T00:05:48.968Z,0
2018-04-29T00:06:48.701Z,0
2018-04-29T00:07:48.916Z,0
2018-04-29T00:08:48.406Z,0
2018-04-29T00:09:48.878Z,0
2018-04-29T00:10:48.856Z,0
2018-04-29T00:11:48.834Z,0
2018-04-29T00:12:48.813Z,0
2018-04-29T00:13:48.546Z,0
2018-04-29T00:14:48.768Z,0
2018-04-29T00:15:48.747Z,0
2018-04-29T00:16:48.220Z,0
2018-04-29T00:17:48.699Z,0
2018-04-29T00:18:48.425Z,0
2018-04-29T00:19:48.667Z,0
2018-04-29T00:20:48.638Z,0
2018-04-29T00:21:48.112Z,0
2018-04-29T00:22:48.590Z,0
2018-04-29T00:23:48.318Z,0
2018-04-29T00:24:48.293Z,0
2018-04-29T00:25:48.518Z,0
2018-04-29T00:26:48.251Z,0
2018-04-29T00:27:48.229Z,0
2018-04-29T00:28:48.210Z,0
2018-04-29T00:29:47.934Z,0
2018-04-29T00:30:47.905Z,0
2018-04-29T00:31:48.392Z,0
2018-04-29T00:32:48.463Z,0
2018-04-29T00:33:47.840Z,0
2018-04-29T00:34:48.325Z,0
2018-04-29T00:35:48.292Z,0
2018-04-29T00:36:48.043Z,0
2018-04-29T00:37:47.754Z,0
2018-04-29T00:38:48.648Z,0
2018-04-29T00:39:48.209Z,0
2018-04-29T00:40:47.933Z,0
2018-04-29T00:41:48.166Z,0
2018-04-29T00:42:48.138Z,0
2018-04-29T00:43:48.112Z,0
2018-04-29T00:44:47.849Z,0
2018-04-29T00:45:47.824Z,0
2018-04-29T00:46:47.800Z,0
2018-04-29T00:47:47.782Z,0
2018-04-29T00:48:47.852Z,0
2018-04-29T00:49:47.744Z,0
2018-04-29T00:50:47.466Z,0
2018-04-29T00:51:47.946Z,0
2018-04-29T00:52:47.662Z,0
2018-04-29T00:53:47.889Z,0
2018-04-29T00:54:47.862Z,0
2018-04-29T00:55:47.843Z,0
2018-04-29T00:56:47.823Z,0
2018-04-29T00:57:47.803Z,0
2018-04-29T00:58:47.517Z,0
2018-04-29T00:59:47.506Z,0
2018-04-29T01:00:47.726Z,0
2018-04-29T01:01:47.705Z,0
2018-04-29T01:02:47.679Z,0
2018-04-29T01:03:47.515Z,0
2018-04-29T01:04:47.379Z,0
2018-04-29T01:05:47.370Z,0
2018-04-29T01:06:47.345Z,0
2018-04-29T01:07:47.586Z,0
2018-04-29T01:08:47.539Z,0
2018-04-29T01:09:47.274Z,0
2018-04-29T01:10:47.501Z,0
2018-04-29T01:11:47.265Z,0
2018-04-29T01:12:47.444Z,0
2018-04-29T01:13:47.426Z,0
2018-04-29T01:14:47.407Z,0
2018-04-29T01:15:47.035Z,0
2018-04-29T01:16:47.110Z,0
2018-04-29T01:17:47.339Z,0
2018-04-29T01:18:47.317Z,0
2018-04-29T01:19:47.366Z,0
2018-04-29T01:20:47.015Z,0
2018-04-29T01:21:46.988Z,0
2018-04-29T01:22:46.718Z,0
2018-04-29T01:23:47.188Z,0
2018-04-29T01:24:46.676Z,0
2018-04-29T01:25:46.894Z,0
2018-04-29T01:26:47.125Z,0
2018-04-29T01:27:47.093Z,0
2018-04-29T01:28:46.825Z,0
2018-04-29T01:29:46.797Z,0
2018-04-29T01:30:46.772Z,0
2018-04-29T01:31:46.501Z,0
2018-04-29T01:32:47.062Z,0
2018-04-29T01:33:46.696Z,0
2018-04-29T01:34:46.927Z,0
2018-04-29T01:35:46.657Z,0
2018-04-29T01:36:46.884Z,0
2018-04-29T01:37:47.168Z,0
2018-04-29T01:38:46.756Z,0
2018-04-29T01:39:46.814Z,0
2018-04-29T01:40:46.539Z,0
2018-04-29T01:41:46.519Z,0
2018-04-29T01:42:46.742Z,0
2018-04-29T01:43:46.707Z,0
2018-04-29T01:44:46.205Z,0
2018-04-29T01:45:46.670Z,0
2018-04-29T01:46:46.640Z,0
2018-04-29T01:47:46.618Z,0
2018-04-29T01:48:46.664Z,0
2018-04-29T01:49:46.575Z,0
2018-04-29T01:50:46.557Z,0
2018-04-29T01:51:46.737Z,0
2018-04-29T01:52:46.497Z,0
2018-04-29T01:53:46.471Z,0
2018-04-29T01:54:46.459Z,0
2018-04-29T01:55:46.176Z,0
2018-04-29T01:56:46.405Z,0
2018-04-29T01:57:46.133Z,0
2018-04-29T01:58:46.357Z,0
2018-04-29T01:59:46.329Z,0
2018-04-29T02:00:46.349Z,0
2018-04-29T02:01:46.042Z,0
2018-04-29T02:02:46.009Z,0
2018-04-29T02:03:45.993Z,0
2018-04-29T02:04:46.222Z,0
2018-04-29T02:05:46.192Z,0
2018-04-29T02:06:45.918Z,0
2018-04-29T02:07:46.143Z,0
2018-04-29T02:08:46.122Z,0
2018-04-29T02:09:46.093Z,0
2018-04-29T02:10:45.823Z,0
2018-04-29T02:11:45.543Z,0
2018-04-29T02:12:45.775Z,0
2018-04-29T02:13:45.986Z,0
2018-04-29T02:14:45.983Z,0
2018-04-29T02:15:45.450Z,0
2018-04-29T02:16:45.918Z,0
2018-04-29T02:17:45.639Z,0
2018-04-29T02:18:45.922Z,0
2018-04-29T02:19:45.849Z,0
2018-04-29T02:20:45.824Z,0
2018-04-29T02:21:45.557Z,0
2018-04-29T02:22:45.775Z,0
2018-04-29T02:23:45.510Z,0
2018-04-29T02:24:45.481Z,0
2018-04-29T02:25:45.714Z,0
2018-04-29T02:26:45.676Z,0
2018-04-29T02:27:45.747Z,0
2018-04-29T02:28:45.626Z,0
2018-04-29T02:29:45.599Z,0
2018-04-29T02:30:45.589Z,0
2018-04-29T02:31:45.315Z,0
2018-04-29T02:32:45.528Z,0
2018-04-29T02:33:45.268Z,0
2018-04-29T02:34:45.588Z,0
2018-04-29T02:35:45.471Z,0
2018-04-29T02:36:44.936Z,0
2018-04-29T02:37:45.236Z,0
2018-04-29T02:38:45.393Z,0
2018-04-29T02:39:45.381Z,0
2018-04-29T02:40:45.090Z,0
2018-04-29T02:41:45.319Z,0
2018-04-29T02:42:45.035Z,0
2018-04-29T02:43:45.265Z,0
2018-04-29T02:44:45.239Z,0
2018-04-29T02:45:45.212Z,0
2018-04-29T02:46:45.187Z,0
2018-04-29T02:47:45.181Z,0
2018-04-29T02:48:44.667Z,0
2018-04-29T02:49:45.125Z,0
2018-04-29T02:50:44.347Z,0
2018-04-29T02:51:45.077Z,0
2018-04-29T02:52:45.046Z,0
2018-04-29T02:53:45.017Z,0
2018-04-29T02:54:44.498Z,0
2018-04-29T02:55:44.468Z,0
2018-04-29T02:56:44.945Z,0
2018-04-29T02:57:44.914Z,0
2018-04-29T02:58:44.897Z,0
2018-04-29T02:59:44.880Z,0
2018-04-29T03:00:44.950Z,0
2018-04-29T03:01:44.833Z,0
2018-04-29T03:02:44.563Z,0
2018-04-29T03:03:44.526Z,0
2018-04-29T03:04:44.497Z,0
2018-04-29T03:05:44.756Z,0
2018-04-29T03:06:44.454Z,0
2018-04-29T03:07:44.446Z,0
2018-04-29T03:08:44.432Z,0
2018-04-29T03:09:44.403Z,0
2018-04-29T03:10:44.377Z,0
2018-04-29T03:11:44.085Z,0
2018-04-29T03:12:44.051Z,0
2018-04-29T03:13:44.520Z,0
2018-04-29T03:14:44.497Z,0
2018-04-29T03:15:44.472Z,0
2018-04-29T03:16:44.195Z,0
2018-04-29T03:17:44.415Z,0
2018-04-29T03:18:44.397Z,0
2018-04-29T03:19:44.368Z,0
2018-04-29T03:20:44.340Z,0
2018-04-29T03:21:44.070Z,0
2018-04-29T03:22:44.300Z,0
2018-04-29T03:23:44.028Z,0
2018-04-29T03:24:44.240Z,0
2018-04-29T03:25:43.474Z,0
2018-04-29T03:26:44.193Z,0
2018-04-29T03:27:44.174Z,0
2018-04-29T03:28:44.149Z,0
2018-04-29T03:29:44.121Z,0
2018-04-29T03:30:43.861Z,0
2018-04-29T03:31:44.078Z,0
2018-04-29T03:32:44.045Z,0
2018-04-29T03:33:44.015Z,0
2018-04-29T03:34:43.995Z,0
2018-04-29T03:35:43.468Z,0
2018-04-29T03:36:43.940Z,0
2018-04-29T03:37:43.919Z,0
2018-04-29T03:38:43.901Z,0
2018-04-29T03:39:43.900Z,0
2018-04-29T03:40:43.589Z,0
2018-04-29T03:41:43.567Z,0
2018-04-29T03:42:43.550Z,0
2018-04-29T03:43:43.528Z,0
2018-04-29T03:44:43.494Z,0
2018-04-29T03:45:43.715Z,0
2018-04-29T03:46:43.697Z,0
2018-04-29T03:47:43.676Z,0
2018-04-29T03:48:43.637Z,0
2018-04-29T03:49:43.627Z,0
2018-04-29T03:50:43.374Z,0
2018-04-29T03:51:43.325Z,0
2018-04-29T03:52:43.298Z,0
2018-04-29T03:53:43.267Z,5
2018-04-29T03:54:42.995Z,5
2018-04-29T03:55:43.223Z,5
2018-04-29T03:56:43.444Z,5
2018-04-29T03:57:43.169Z,5
2018-04-29T03:58:43.395Z,5
2018-04-29T03:59:43.375Z,10
2018-04-29T04:00:43.348Z,10
2018-04-29T04:01:53.955Z,10
2018-04-29T04:02:43.568Z,15
2018-04-29T04:03:43.273Z,15
2018-04-29T04:04:43.239Z,20
2018-04-29T04:05:43.221Z,20
2018-04-29T04:06:43.191Z,25
2018-04-29T04:07:43.162Z,25
2018-04-29T04:08:43.145Z,30
2018-04-29T04:09:42.691Z,30
2018-04-29T04:10:42.597Z,35
2018-04-29T04:11:42.963Z,40
2018-04-29T04:12:43.066Z,45
2018-04-29T04:13:43.011Z,45
2018-04-29T04:14:42.995Z,45
2018-04-29T04:15:42.714Z,50
2018-04-29T04:16:43.041Z,50
2018-04-29T04:17:42.578Z,55
2018-04-29T04:18:42.888Z,60
2018-04-29T04:19:42.861Z,60
2018-04-29T04:20:42.601Z,65
2018-04-29T04:21:42.812Z,70
2018-04-29T04:22:42.539Z,75
2018-04-29T04:23:43.048Z,75
2018-04-29T04:24:42.487Z,80
2018-04-29T04:25:42.465Z,85
2018-04-29T04:26:42.687Z,90
2018-04-29T04:27:42.416Z,90
2018-04-29T04:28:42.658Z,95
2018-04-29T04:29:42.619Z,95
2018-04-29T04:30:42.581Z,100
2018-04-29T04:31:42.559Z,100
2018-04-29T04:32:42.536Z,105
2018-04-29T04:33:42.520Z,105
2018-04-29T04:34:42.492Z,105
2018-04-29T04:35:42.462Z,110
2018-04-29T04:36:41.945Z,110
2018-04-29T04:37:42.416Z,115
2018-04-29T04:38:41.898Z,115
2018-04-29T04:39:42.372Z,115
2018-04-29T04:40:42.340Z,115
2018-04-29T04:41:42.069Z,115
2018-04-29T04:42:42.291Z,110
2018-04-29T04:43:42.267Z,110
2018-04-29T04:44:42.255Z,110
2018-04-29T04:45:42.213Z,115
2018-04-29T04:46:42.192Z,115
2018-04-29T04:47:41.915Z,115
2018-04-29T04:48:41.892Z,115
2018-04-29T04:49:41.873Z,115
2018-04-29T04:50:41.996Z,115
2018-04-29T04:51:41.826Z,115
2018-04-29T04:52:41.546Z,115
2018-04-29T04:53:41.770Z,115
2018-04-29T04:54:41.745Z,120
2018-04-29T04:55:41.732Z,125
2018-04-29T04:56:41.952Z,130
2018-04-29T04:57:41.927Z,140
2018-04-29T04:58:41.649Z,145
2018-04-29T04:59:41.624Z,150
2018-04-29T05:00:41.681Z,155
2018-04-29T05:01:41.576Z,160
2018-04-29T05:02:41.545Z,165
2018-04-29T05:03:41.525Z,170
2018-04-29T05:04:41.328Z,175
2018-04-29T05:05:41.483Z,180
2018-04-29T05:06:41.452Z,185
2018-04-29T05:07:41.684Z,190
2018-04-29T05:08:41.655Z,195
2018-04-29T05:09:41.136Z,200
2018-04-29T05:10:41.356Z,210
2018-04-29T05:11:41.330Z,220
2018-04-29T05:12:41.554Z,225
2018-04-29T05:13:41.635Z,225
2018-04-29T05:14:41.507Z,225
2018-04-29T05:15:41.243Z,225
2018-04-29T05:16:41.458Z,225
2018-04-29T05:17:41.188Z,225
2018-04-29T05:18:41.413Z,230
2018-04-29T05:19:41.380Z,235
2018-04-29T05:20:41.118Z,240
2018-04-29T05:21:41.339Z,245
2018-04-29T05:22:41.140Z,255
2018-04-29T05:23:41.304Z,265
2018-04-29T05:24:41.015Z,275
2018-04-29T05:25:40.996Z,280
2018-04-29T05:26:41.217Z,280
2018-04-29T05:27:41.196Z,280
2018-04-29T05:28:41.168Z,290
2018-04-29T05:29:40.902Z,305
2018-04-29T05:30:40.934Z,320
2018-04-29T05:31:41.107Z,335
2018-04-29T05:32:41.084Z,350
2018-04-29T05:33:40.550Z,365
2018-04-29T05:34:41.034Z,390
2018-04-29T05:35:41.024Z,420
2018-04-29T05:36:40.730Z,430
2018-04-29T05:37:40.951Z,435
2018-04-29T05:38:40.690Z,435
2018-04-29T05:39:40.912Z,430
2018-04-29T05:40:40.717Z,405
2018-04-29T05:41:40.871Z,405
2018-04-29T05:42:40.343Z,390
2018-04-29T05:43:40.324Z,360
2018-04-29T05:44:40.794Z,350
2018-04-29T05:45:40.773Z,350
2018-04-29T05:46:40.759Z,345
2018-04-29T05:47:40.487Z,335
2018-04-29T05:48:40.702Z,330
2018-04-29T05:49:40.681Z,335
2018-04-29T05:50:40.417Z,355
2018-04-29T05:51:40.393Z,375
2018-04-29T05:52:40.392Z,410
2018-04-29T05:53:40.606Z,465
2018-04-29T05:54:40.351Z,510
2018-04-29T05:55:40.315Z,615
2018-04-29T05:56:40.533Z,765
2018-04-29T05:57:40.262Z,795
2018-04-29T05:58:40.490Z,690
2018-04-29T05:59:40.464Z,785
2018-04-29T06:00:40.195Z,845
2018-04-29T06:01:40.429Z,870
2018-04-29T06:02:40.404Z,515
2018-04-29T06:03:40.134Z,595
2018-04-29T06:04:40.369Z,540
2018-04-29T06:05:40.338Z,525
2018-04-29T06:06:41.047Z,645
2018-04-29T06:07:40.311Z,780
2018-04-29T06:08:40.283Z,730
2018-04-29T06:09:40.264Z,480
2018-04-29T06:10:40.247Z,460
2018-04-29T06:11:39.726Z,470
2018-04-29T06:12:40.019Z,485
2018-04-29T06:13:40.187Z,550
2018-04-29T06:14:40.524Z,570
2018-04-29T06:15:39.896Z,525
2018-04-29T06:16:40.118Z,665
2018-04-29T06:17:39.851Z,635
2018-04-29T06:18:40.082Z,875
2018-04-29T06:19:39.813Z,770
2018-04-29T06:20:39.974Z,645
2018-04-29T06:21:40.041Z,615
2018-04-29T06:22:39.514Z,630
2018-04-29T06:23:39.491Z,660
2018-04-29T06:24:39.973Z,720
2018-04-29T06:25:39.706Z,765
2018-04-29T06:26:39.925Z,775
2018-04-29T06:27:39.916Z,715
2018-04-29T06:28:39.900Z,765
2018-04-29T06:29:39.876Z,685
2018-04-29T06:30:39.868Z,580
2018-04-29T06:31:39.836Z,515
2018-04-29T06:32:39.584Z,495
2018-04-29T06:33:39.797Z,505
2018-04-29T06:34:39.789Z,465
2018-04-29T06:35:39.766Z,440
2018-04-29T06:36:39.245Z,430
2018-04-29T06:37:39.728Z,400
2018-04-29T06:38:39.453Z,380
2018-04-29T06:39:39.687Z,370
2018-04-29T06:40:39.678Z,385
2018-04-29T06:41:39.403Z,440
2018-04-29T06:42:39.376Z,505
2018-04-29T06:43:39.700Z,520
2018-04-29T06:44:39.591Z,555
2018-04-29T06:45:39.574Z,610
2018-04-29T06:46:39.560Z,805
2018-04-29T06:47:39.535Z,1245
2018-04-29T06:48:39.267Z,1335
2018-04-29T06:49:39.247Z,625
2018-04-29T06:50:39.237Z,530
2018-04-29T06:51:39.464Z,460
2018-04-29T06:52:39.198Z,400
2018-04-29T06:53:39.709Z,375
2018-04-29T06:54:39.424Z,370
2018-04-29T06:55:39.402Z,370
2018-04-29T06:56:39.386Z,385
2018-04-29T06:57:39.359Z,405
2018-04-29T06:58:39.087Z,420
2018-04-29T06:59:39.314Z,455
2018-04-29T07:00:39.287Z,690
2018-04-29T07:01:39.034Z,585
2018-04-29T07:02:39.015Z,595
2018-04-29T07:03:38.742Z,600
2018-04-29T07:04:38.982Z,605
2018-04-29T07:05:39.206Z,605
2018-04-29T07:06:39.178Z,610
2018-04-29T07:07:39.171Z,610
2018-04-29T07:08:39.238Z,605
2018-04-29T07:09:39.435Z,610
2018-04-29T07:10:39.118Z,650
2018-04-29T07:11:39.107Z,795
2018-04-29T07:12:39.078Z,1070
2018-04-29T07:13:38.803Z,645
2018-04-29T07:14:39.032Z,645
2018-04-29T07:15:39.013Z,655
2018-04-29T07:16:39.003Z,645
2018-04-29T07:17:38.969Z,610
2018-04-29T07:18:38.966Z,570
2018-04-29T07:19:38.447Z,545
2018-04-29T07:20:38.429Z,525
2018-04-29T07:21:38.653Z,495
2018-04-29T07:22:38.646Z,475
2018-04-29T07:23:38.625Z,470
2018-04-29T07:24:38.613Z,470
2018-04-29T07:25:38.092Z,460
2018-04-29T07:26:38.828Z,450
2018-04-29T07:27:38.794Z,440
2018-04-29T07:28:38.734Z,435
2018-04-29T07:29:38.506Z,435
2018-04-29T07:30:38.499Z,420
2018-04-29T07:31:38.725Z,425
2018-04-29T07:32:38.455Z,425
2018-04-29T07:33:38.694Z,430
2018-04-29T07:34:38.412Z,420
2018-04-29T07:35:38.474Z,435
2018-04-29T07:36:38.135Z,470
2018-04-29T07:37:38.362Z,480
2018-04-29T07:38:37.851Z,455
2018-04-29T07:39:37.934Z,390
2018-04-29T07:40:38.544Z,320
2018-04-29T07:41:38.582Z,260
2018-04-29T07:42:38.508Z,225
2018-04-29T07:43:38.496Z,195
2018-04-29T07:44:38.230Z,170
2018-04-29T07:45:38.452Z,145
2018-04-29T07:46:38.655Z,135
2018-04-29T07:47:38.429Z,155
2018-04-29T07:48:38.161Z,185
2018-04-29T07:49:38.132Z,220
2018-04-29T07:50:37.960Z,265
2018-04-29T07:51:38.378Z,315
2018-04-29T07:52:38.904Z,370
2018-04-29T07:53:38.136Z,390
2018-04-29T07:54:38.027Z,380
2018-04-29T07:55:38.250Z,375
2018-04-29T07:56:38.248Z,355
2018-04-29T07:57:37.963Z,315
2018-04-29T07:58:37.712Z,295
2018-04-29T07:59:38.172Z,285
2018-04-29T08:00:37.986Z,280
2018-04-29T08:01:37.895Z,280
2018-04-29T08:02:37.858Z,325
2018-04-29T08:03:38.094Z,400
2018-04-29T08:04:38.067Z,485
2018-04-29T08:05:38.061Z,580
2018-04-29T08:06:38.038Z,705
2018-04-29T08:07:38.031Z,810
2018-04-29T08:08:37.738Z,805
2018-04-29T08:09:37.797Z,795
2018-04-29T08:10:38.982Z,805
2018-04-29T08:11:38.655Z,760
2018-04-29T08:12:37.915Z,720
2018-04-29T08:13:37.643Z,675
2018-04-29T08:14:37.866Z,600
2018-04-29T08:15:38.072Z,535
2018-04-29T08:16:37.830Z,535
2018-04-29T08:17:37.561Z,670
2018-04-29T08:18:38.061Z,710
2018-04-29T08:19:37.514Z,685
2018-04-29T08:20:37.256Z,695
2018-04-29T08:21:37.727Z,720
2018-04-29T08:22:37.737Z,715
2018-04-29T08:23:37.447Z,685
2018-04-29T08:24:37.668Z,645
2018-04-29T08:25:37.654Z,680
2018-04-29T08:26:37.655Z,740
2018-04-29T08:27:37.366Z,745
2018-04-29T08:28:37.344Z,735
2018-04-29T08:29:37.573Z,755
2018-04-29T08:30:37.062Z,885
2018-04-29T08:31:37.285Z,1245
2018-04-29T08:32:37.275Z,1105
2018-04-29T08:33:37.006Z,870
2018-04-29T08:34:37.484Z,875
2018-04-29T08:35:37.213Z,925
2018-04-29T08:36:37.439Z,880
2018-04-29T08:37:37.188Z,875
2018-04-29T08:38:37.408Z,895
2018-04-29T08:39:37.389Z,935
2018-04-29T08:40:37.370Z,935
2018-04-29T08:41:38.094Z,895
2018-04-29T08:42:37.336Z,840
2018-04-29T08:43:37.065Z,795
2018-04-29T08:44:37.294Z,765
2018-04-29T08:45:37.029Z,735
2018-04-29T08:46:37.012Z,735
2018-04-29T08:47:37.237Z,780
2018-04-29T08:48:37.370Z,840
2018-04-29T08:49:37.067Z,900
2018-04-29T08:50:36.937Z,950
2018-04-29T08:51:36.423Z,1030
2018-04-29T08:52:37.155Z,1500
2018-04-29T08:53:36.881Z,1220
2018-04-29T08:54:36.864Z,1315
2018-04-29T08:55:37.091Z,1250
2018-04-29T08:56:37.065Z,1135
2018-04-29T08:57:37.071Z,1210
2018-04-29T08:58:37.053Z,1185
2018-04-29T08:59:37.065Z,1415
2018-04-29T09:00:36.752Z,1225
2018-04-29T09:01:36.998Z,1120
2018-04-29T09:02:36.469Z,1115
2018-04-29T09:03:36.613Z,1015
2018-04-29T09:04:36.680Z,920
2018-04-29T09:05:36.167Z,840
2018-04-29T09:06:36.660Z,780
2018-04-29T09:07:36.632Z,740
2018-04-29T09:08:36.859Z,695
2018-04-29T09:09:36.604Z,645
2018-04-29T09:10:36.342Z,590
2018-04-29T09:11:36.578Z,565
2018-04-29T09:12:37.855Z,585
2018-04-29T09:13:36.781Z,605
2018-04-29T09:14:36.800Z,575
2018-04-29T09:15:36.758Z,525
2018-04-29T09:16:36.480Z,485
2018-04-29T09:17:36.597Z,470
2018-04-29T09:18:36.693Z,515
2018-04-29T09:19:36.427Z,615
2018-04-29T09:20:36.408Z,730
2018-04-29T09:21:36.651Z,850
2018-04-29T09:22:36.623Z,2350
2018-04-29T09:23:36.614Z,2270
2018-04-29T09:24:36.596Z,2025
2018-04-29T09:25:36.574Z,1750
2018-04-29T09:26:36.545Z,1820
2018-04-29T09:27:36.542Z,1715
2018-04-29T09:28:36.267Z,1910
2018-04-29T09:29:36.499Z,1540
2018-04-29T09:30:36.231Z,1420
2018-04-29T09:31:36.238Z,1355
2018-04-29T09:32:36.453Z,1290
2018-04-29T09:33:36.444Z,1305
2018-04-29T09:34:36.430Z,1400
2018-04-29T09:35:36.410Z,1645
2018-04-29T09:36:36.146Z,1935
2018-04-29T09:37:36.382Z,1960
2018-04-29T09:38:36.130Z,1800
2018-04-29T09:39:36.438Z,1840
2018-04-29T09:40:36.343Z,2035
2018-04-29T09:41:36.076Z,1520
2018-04-29T09:42:36.087Z,1730
2018-04-29T09:43:36.775Z,1520
2018-04-29T09:44:36.282Z,1630
2018-04-29T09:45:36.269Z,1705
2018-04-29T09:46:36.257Z,1430
2018-04-29T09:47:36.249Z,1390
2018-04-29T09:48:35.995Z,1455
2018-04-29T09:49:35.973Z,1605
2018-04-29T09:50:35.961Z,1575
2018-04-29T09:51:35.694Z,1465
2018-04-29T09:52:35.979Z,1340
2018-04-29T09:53:36.169Z,1250
2018-04-29T09:54:35.443Z,1190
2018-04-29T09:55:36.138Z,1135
2018-04-29T09:56:35.924Z,1085
2018-04-29T09:57:35.819Z,1070
2018-04-29T09:58:35.511Z,1075
2018-04-29T09:59:35.836Z,1115
2018-04-29T10:00:36.100Z,1150
2018-04-29T10:01:35.575Z,1175
2018-04-29T10:02:35.799Z,1165
2018-04-29T10:03:36.043Z,1155
2018-04-29T10:04:35.917Z,1130
2018-04-29T10:05:35.857Z,1140
2018-04-29T10:06:35.741Z,1140
2018-04-29T10:07:35.974Z,1135
2018-04-29T10:08:35.463Z,1130
2018-04-29T10:09:36.398Z,1110
2018-04-29T10:10:35.951Z,1075
2018-04-29T10:11:35.911Z,1035
2018-04-29T10:12:35.965Z,1025
2018-04-29T10:13:35.651Z,990
2018-04-29T10:14:35.639Z,995
2018-04-29T10:15:35.871Z,985
2018-04-29T10:16:35.849Z,970
2018-04-29T10:17:35.931Z,935
2018-04-29T10:18:35.565Z,915
2018-04-29T10:19:35.836Z,995
2018-04-29T10:20:35.291Z,1060
2018-04-29T10:21:35.529Z,1150
2018-04-29T10:22:35.519Z,1195
2018-04-29T10:23:35.768Z,1135
2018-04-29T10:24:35.556Z,1015
2018-04-29T10:25:35.723Z,1035
2018-04-29T10:26:35.465Z,1055
2018-04-29T10:27:35.695Z,1035
2018-04-29T10:28:35.429Z,1010
2018-04-29T10:29:35.415Z,1050
2018-04-29T10:30:35.642Z,1145
2018-04-29T10:31:35.627Z,1275
2018-04-29T10:32:35.818Z,1300
2018-04-29T10:33:35.349Z,1320
2018-04-29T10:34:35.587Z,1345
2018-04-29T10:35:35.324Z,1515
2018-04-29T10:36:34.815Z,1495
2018-04-29T10:37:35.639Z,1360
2018-04-29T10:38:35.546Z,1095
2018-04-29T10:39:35.518Z,940
2018-04-29T10:40:35.258Z,900
2018-04-29T10:41:34.994Z,920
2018-04-29T10:42:35.476Z,850
2018-04-29T10:43:35.469Z,810
2018-04-29T10:44:35.199Z,775
2018-04-29T10:45:35.444Z,720
2018-04-29T10:46:35.419Z,690
2018-04-29T10:47:35.406Z,685
2018-04-29T10:48:35.395Z,680
2018-04-29T10:49:35.121Z,670
2018-04-29T10:50:35.361Z,670
2018-04-29T10:51:35.097Z,670
2018-04-29T10:52:35.399Z,670
2018-04-29T10:53:35.144Z,680
2018-04-29T10:54:35.061Z,695
2018-04-29T10:55:34.780Z,710
2018-04-29T10:56:34.846Z,740
2018-04-29T10:57:35.255Z,785
2018-04-29T10:58:35.243Z,830
2018-04-29T10:59:34.718Z,915
2018-04-29T11:00:34.960Z,930
2018-04-29T11:01:34.685Z,975
2018-04-29T11:02:35.173Z,905
2018-04-29T11:03:35.154Z,895
2018-04-29T11:04:35.126Z,1020
2018-04-29T11:05:34.880Z,1285
2018-04-29T11:06:34.865Z,1365
2018-04-29T11:07:34.597Z,1370
2018-04-29T11:08:34.837Z,1285
2018-04-29T11:09:34.813Z,1245
2018-04-29T11:10:35.057Z,1265
2018-04-29T11:11:35.052Z,1290
2018-04-29T11:12:35.019Z,1285
2018-04-29T11:13:34.757Z,1330
2018-04-29T11:14:34.488Z,1345
2018-04-29T11:15:34.981Z,1190
2018-04-29T11:16:34.720Z,1080
2018-04-29T11:17:34.704Z,1030
2018-04-29T11:18:34.731Z,1070
2018-04-29T11:19:34.927Z,1115
2018-04-29T11:20:34.662Z,1160
2018-04-29T11:21:34.646Z,1205
2018-04-29T11:22:34.465Z,1260
2018-04-29T11:23:34.866Z,1310
2018-04-29T11:24:34.600Z,1295
2018-04-29T11:25:34.589Z,1250
2018-04-29T11:26:34.336Z,1260
2018-04-29T11:27:34.811Z,1250
2018-04-29T11:28:34.969Z,1230
2018-04-29T11:29:34.828Z,1220
2018-04-29T11:30:34.772Z,1230
2018-04-29T11:31:34.758Z,1230
2018-04-29T11:32:34.244Z,1230
2018-04-29T11:33:34.493Z,1250
2018-04-29T11:34:34.729Z,1295
2018-04-29T11:35:34.216Z,1310
2018-04-29T11:36:34.196Z,1265
2018-04-29T11:37:34.448Z,1235
2018-04-29T11:38:33.926Z,1295
2018-04-29T11:39:34.420Z,1415
2018-04-29T11:40:35.302Z,1385
2018-04-29T11:41:34.391Z,1350
2018-04-29T11:42:34.613Z,1260
2018-04-29T11:43:34.368Z,1220
2018-04-29T11:44:34.402Z,1225
2018-04-29T11:45:34.331Z,1300
2018-04-29T11:46:34.569Z,1245
2018-04-29T11:47:34.054Z,1230
2018-04-29T11:48:34.545Z,1235
2018-04-29T11:49:34.314Z,1260
2018-04-29T11:50:34.306Z,1235
2018-04-29T11:51:34.257Z,1295
2018-04-29T11:52:33.994Z,1315
2018-04-29T11:53:33.980Z,1285
2018-04-29T11:54:33.975Z,1275
2018-04-29T11:55:34.461Z,1255
2018-04-29T11:56:34.188Z,1255
2018-04-29T11:57:34.428Z,1280
2018-04-29T11:58:34.161Z,1275
2018-04-29T11:59:34.150Z,1285
2018-04-29T12:00:34.136Z,1285
2018-04-29T12:01:34.143Z,1280
2018-04-29T12:02:34.530Z,1275
2018-04-29T12:03:34.359Z,1285
2018-04-29T12:04:34.364Z,1310
2018-04-29T12:05:34.328Z,1345
2018-04-29T12:06:34.146Z,1390
2018-04-29T12:07:34.066Z,1410
2018-04-29T12:08:34.059Z,1400
2018-04-29T12:09:34.291Z,1365
2018-04-29T12:10:34.019Z,1375
2018-04-29T12:11:33.761Z,1370
2018-04-29T12:12:34.002Z,1330
2018-04-29T12:13:34.237Z,1325
2018-04-29T12:14:34.000Z,1340
2018-04-29T12:15:34.208Z,1365
2018-04-29T12:16:34.545Z,1400
2018-04-29T12:17:34.194Z,1445
2018-04-29T12:18:33.674Z,1470
2018-04-29T12:19:34.185Z,1290
2018-04-29T12:20:33.901Z,1085
2018-04-29T12:21:33.893Z,970
2018-04-29T12:22:34.146Z,935
2018-04-29T12:23:33.875Z,900
2018-04-29T12:24:33.729Z,845
2018-04-29T12:25:34.106Z,885
2018-04-29T12:26:33.833Z,1120
2018-04-29T12:27:33.824Z,1345
2018-04-29T12:28:33.575Z,1395
2018-04-29T12:29:34.052Z,1345
2018-04-29T12:30:34.059Z,1305
2018-04-29T12:31:33.874Z,1275
2018-04-29T12:32:33.775Z,1240
2018-04-29T12:33:34.133Z,1180
2018-04-29T12:34:33.499Z,1165
2018-04-29T12:35:33.985Z,1155
2018-04-29T12:36:33.973Z,1165
2018-04-29T12:37:33.968Z,1150
2018-04-29T12:38:33.963Z,1195
2018-04-29T12:39:33.691Z,1225
2018-04-29T12:40:33.922Z,1235
2018-04-29T12:41:33.661Z,1245
2018-04-29T12:42:33.910Z,1250
2018-04-29T12:43:33.883Z,1265
2018-04-29T12:44:33.628Z,1295
2018-04-29T12:45:33.627Z,1300
2018-04-29T12:46:33.654Z,1315
2018-04-29T12:47:33.849Z,1355
2018-04-29T12:48:33.853Z,1310
2018-04-29T12:49:33.823Z,1225
2018-04-29T12:50:33.820Z,1220
2018-04-29T12:51:33.795Z,1290
2018-04-29T12:52:33.785Z,1325
2018-04-29T12:53:33.033Z,1380
2018-04-29T12:54:33.786Z,1295
2018-04-29T12:55:33.515Z,1205
2018-04-29T12:56:33.242Z,1280
2018-04-29T12:57:33.732Z,1285
2018-04-29T12:58:33.476Z,1095
2018-04-29T12:59:33.459Z,960
2018-04-29T13:00:33.773Z,910
2018-04-29T13:01:33.513Z,890
2018-04-29T13:02:33.420Z,920
2018-04-29T13:03:33.667Z,1060
2018-04-29T13:04:33.418Z,1100
2018-04-29T13:05:33.664Z,1210
2018-04-29T13:06:33.638Z,1455
2018-04-29T13:07:33.375Z,1415
2018-04-29T13:08:33.609Z,1390
2018-04-29T13:09:33.347Z,1405
2018-04-29T13:10:33.585Z,1565
2018-04-29T13:11:33.575Z,1430
2018-04-29T13:12:32.897Z,1320
2018-04-29T13:13:33.305Z,1220
2018-04-29T13:14:32.800Z,1210
2018-04-29T13:15:33.539Z,1255
2018-04-29T13:16:33.272Z,1335
2018-04-29T13:17:33.524Z,1305
2018-04-29T13:18:33.501Z,1360
2018-04-29T13:19:33.242Z,1385
2018-04-29T13:20:33.471Z,1380
2018-04-29T13:21:33.002Z,1375
2018-04-29T13:22:32.965Z,1315
2018-04-29T13:23:33.217Z,1360
2018-04-29T13:24:33.194Z,1420
2018-04-29T13:25:32.937Z,1365
2018-04-29T13:26:33.423Z,1285
2018-04-29T13:27:33.427Z,1115
2018-04-29T13:28:33.154Z,1090
2018-04-29T13:29:34.254Z,1005
2018-04-29T13:30:33.384Z,980
2018-04-29T13:31:35.444Z,1075
2018-04-29T13:32:33.372Z,1085
2018-04-29T13:33:32.932Z,1145
2018-04-29T13:34:33.349Z,1195
2018-04-29T13:35:33.335Z,1095
2018-04-29T13:36:33.084Z,1065
2018-04-29T13:37:33.315Z,1045
2018-04-29T13:38:33.056Z,1065
2018-04-29T13:39:33.052Z,1010
2018-04-29T13:40:33.297Z,940
2018-04-29T13:41:33.276Z,875
2018-04-29T13:42:33.409Z,840
2018-04-29T13:43:33.266Z,815
2018-04-29T13:44:32.998Z,830
2018-04-29T13:45:33.237Z,835
2018-04-29T13:46:33.230Z,885
2018-04-29T13:47:32.966Z,870
2018-04-29T13:48:33.211Z,940
2018-04-29T13:49:33.196Z,890
2018-04-29T13:50:33.274Z,960
2018-04-29T13:51:33.182Z,1020
2018-04-29T13:52:33.302Z,1015
2018-04-29T13:53:32.975Z,1010
2018-04-29T13:54:33.143Z,990
2018-04-29T13:55:33.212Z,940